DAL1946 KCMH-KMDW
Flight info
| Callsign | DAL1946 |
|---|---|
| Flight time | 0h 53m |
| Altitude | 36000 |
| Route | PKACZ TARRY ROD FWA PANGG7 |
| Aircraft | A320/M-SDE3FGHIRWY/LB1 |
Departure
| Time | 2026-05-07 14:02 |
|---|---|
| Airport | John Glenn Columbus International Airport (KCMH) |
Arrival
| Time | 2026-05-07 14:55 |
|---|---|
| Airport | Chicago Midway International Airport (KMDW) |
| Time | Latitude | Longitude | Altitude | Speed | Heading |
|---|---|---|---|---|---|
| 2026-05-07 13:48 | 39.99655 | -82.88494 | 821 ft | 0 kts | 15° |
| 2026-05-07 13:49 | 39.99654 | -82.88494 | 821 ft | 0 kts | 15° |
| 2026-05-07 13:54 | 39.99642 | -82.88498 | 820 ft | 3 kts | 20° |
| 2026-05-07 13:55 | 39.99624 | -82.88507 | 820 ft | 2 kts | 19° |
| 2026-05-07 13:55 | 39.99607 | -82.88516 | 818 ft | 3 kts | 40° |
| 2026-05-07 13:55 | 39.99598 | -82.88527 | 814 ft | 3 kts | 65° |
| 2026-05-07 13:55 | 39.99594 | -82.88550 | 818 ft | 2 kts | 92° |
| 2026-05-07 13:56 | 39.99594 | -82.88556 | 818 ft | 0 kts | 94° |
| 2026-05-07 13:56 | 39.99594 | -82.88557 | 818 ft | 0 kts | 94° |
| 2026-05-07 13:58 | 39.99591 | -82.88502 | 818 ft | 12 kts | 95° |
| 2026-05-07 13:58 | 39.99580 | -82.88372 | 815 ft | 14 kts | 108° |
| 2026-05-07 13:58 | 39.99504 | -82.88323 | 818 ft | 14 kts | 189° |
| 2026-05-07 13:58 | 39.99396 | -82.88292 | 820 ft | 18 kts | 113° |
| 2026-05-07 13:59 | 39.99385 | -82.88138 | 821 ft | 16 kts | 94° |
| 2026-05-07 13:59 | 39.99377 | -82.88004 | 822 ft | 14 kts | 94° |
| 2026-05-07 13:59 | 39.99371 | -82.87886 | 822 ft | 12 kts | 94° |
| 2026-05-07 13:59 | 39.99365 | -82.87782 | 822 ft | 12 kts | 94° |
| 2026-05-07 14:00 | 39.99357 | -82.87637 | 823 ft | 17 kts | 94° |
| 2026-05-07 14:00 | 39.99349 | -82.87492 | 822 ft | 16 kts | 94° |
| 2026-05-07 14:00 | 39.99334 | -82.87348 | 818 ft | 15 kts | 118° |
| 2026-05-07 14:00 | 39.99241 | -82.87328 | 818 ft | 16 kts | 190° |
| 2026-05-07 14:01 | 39.99164 | -82.87407 | 818 ft | 16 kts | 272° |
| 2026-05-07 14:01 | 39.99179 | -82.87607 | 818 ft | 43 kts | 275° |
| 2026-05-07 14:01 | 39.99220 | -82.88311 | 822 ft | 110 kts | 274° |
| 2026-05-07 14:01 | 39.99294 | -82.89549 | 862 ft | 158 kts | 276° |
| 2026-05-07 14:02 | 39.99378 | -82.90957 | 1550 ft | 154 kts | 275° |
| 2026-05-07 14:02 | 39.99441 | -82.92377 | 2266 ft | 159 kts | 275° |
| 2026-05-07 14:02 | 39.99499 | -82.93852 | 2871 ft | 174 kts | 275° |
| 2026-05-07 14:02 | 39.99565 | -82.95513 | 3432 ft | 188 kts | 274° |
| 2026-05-07 14:03 | 39.99647 | -82.97298 | 3881 ft | 209 kts | 275° |
| 2026-05-07 14:03 | 39.99774 | -82.99276 | 4368 ft | 233 kts | 275° |
| 2026-05-07 14:03 | 39.99923 | -83.01456 | 5125 ft | 246 kts | 275° |
| 2026-05-07 14:03 | 40.00077 | -83.03694 | 6090 ft | 250 kts | 275° |
| 2026-05-07 14:04 | 40.00230 | -83.05971 | 7032 ft | 254 kts | 275° |
| 2026-05-07 14:04 | 40.00383 | -83.08271 | 7969 ft | 256 kts | 274° |
| 2026-05-07 14:04 | 40.00535 | -83.10591 | 8935 ft | 258 kts | 274° |
| 2026-05-07 14:04 | 40.00687 | -83.12928 | 9906 ft | 260 kts | 274° |
| 2026-05-07 14:05 | 40.00842 | -83.15336 | 10457 ft | 276 kts | 274° |
| 2026-05-07 14:05 | 40.01006 | -83.17931 | 10749 ft | 299 kts | 274° |
| 2026-05-07 14:05 | 40.01178 | -83.20686 | 11351 ft | 308 kts | 274° |
| 2026-05-07 14:05 | 40.01353 | -83.23487 | 12137 ft | 312 kts | 274° |
| 2026-05-07 14:06 | 40.01530 | -83.26323 | 12948 ft | 315 kts | 274° |
| 2026-05-07 14:06 | 40.01713 | -83.29190 | 13756 ft | 318 kts | 274° |
| 2026-05-07 14:06 | 40.01898 | -83.32077 | 14489 ft | 320 kts | 274° |
| 2026-05-07 14:06 | 40.02081 | -83.34972 | 15266 ft | 320 kts | 274° |
| 2026-05-07 14:07 | 40.02258 | -83.37863 | 16081 ft | 319 kts | 273° |
| 2026-05-07 14:07 | 40.02432 | -83.40748 | 16879 ft | 319 kts | 273° |
| 2026-05-07 14:07 | 40.02606 | -83.43628 | 17671 ft | 319 kts | 273° |
| 2026-05-07 14:07 | 40.02781 | -83.46513 | 18458 ft | 318 kts | 272° |
| 2026-05-07 14:08 | 40.02959 | -83.49395 | 19141 ft | 318 kts | 272° |
| 2026-05-07 14:08 | 40.03136 | -83.52274 | 19827 ft | 318 kts | 272° |
| 2026-05-07 14:08 | 40.03310 | -83.55148 | 20501 ft | 319 kts | 271° |
| 2026-05-07 14:08 | 40.03483 | -83.58042 | 21149 ft | 320 kts | 271° |
| 2026-05-07 14:09 | 40.03657 | -83.60938 | 21827 ft | 320 kts | 271° |
| 2026-05-07 14:09 | 40.03830 | -83.63845 | 22500 ft | 321 kts | 270° |
| 2026-05-07 14:09 | 40.04001 | -83.66744 | 23151 ft | 321 kts | 270° |
| 2026-05-07 14:09 | 40.04173 | -83.69652 | 23755 ft | 321 kts | 270° |
| 2026-05-07 14:10 | 40.04346 | -83.72564 | 24229 ft | 323 kts | 270° |
| 2026-05-07 14:10 | 40.04517 | -83.75495 | 24673 ft | 325 kts | 270° |
| 2026-05-07 14:10 | 40.04688 | -83.78436 | 25110 ft | 327 kts | 270° |
| 2026-05-07 14:10 | 40.04858 | -83.81414 | 25531 ft | 329 kts | 270° |
| 2026-05-07 14:11 | 40.05027 | -83.84399 | 25940 ft | 331 kts | 270° |
| 2026-05-07 14:11 | 40.05437 | -83.87389 | 26332 ft | 341 kts | 281° |
| 2026-05-07 14:11 | 40.06511 | -83.90221 | 26722 ft | 359 kts | 295° |
| 2026-05-07 14:11 | 40.08262 | -83.92624 | 27101 ft | 384 kts | 311° |
| 2026-05-07 14:12 | 40.10686 | -83.94365 | 27495 ft | 407 kts | 325° |
| 2026-05-07 14:12 | 40.13308 | -83.95812 | 27846 ft | 411 kts | 325° |
| 2026-05-07 14:12 | 40.15952 | -83.97258 | 28207 ft | 413 kts | 325° |
| 2026-05-07 14:12 | 40.18611 | -83.98710 | 28559 ft | 415 kts | 325° |
| 2026-05-07 14:13 | 40.21284 | -84.00174 | 28893 ft | 418 kts | 325° |
| 2026-05-07 14:13 | 40.23981 | -84.01659 | 29225 ft | 420 kts | 325° |
| 2026-05-07 14:13 | 40.26616 | -84.03255 | 29538 ft | 413 kts | 319° |
| 2026-05-07 14:13 | 40.28955 | -84.05328 | 29853 ft | 401 kts | 310° |
| 2026-05-07 14:14 | 40.30939 | -84.07828 | 30149 ft | 391 kts | 301° |
| 2026-05-07 14:14 | 40.32640 | -84.10590 | 30464 ft | 389 kts | 299° |
| 2026-05-07 14:14 | 40.34330 | -84.13363 | 30740 ft | 390 kts | 299° |
| 2026-05-07 14:14 | 40.36033 | -84.16145 | 31003 ft | 391 kts | 299° |
| 2026-05-07 14:15 | 40.37735 | -84.18919 | 31342 ft | 390 kts | 299° |
| 2026-05-07 14:15 | 40.39436 | -84.21687 | 31698 ft | 388 kts | 298° |
| 2026-05-07 14:15 | 40.41126 | -84.24439 | 32053 ft | 387 kts | 298° |
| 2026-05-07 14:15 | 40.42788 | -84.27151 | 32406 ft | 385 kts | 298° |
| 2026-05-07 14:16 | 40.44461 | -84.29893 | 32768 ft | 384 kts | 298° |
| 2026-05-07 14:16 | 40.46131 | -84.32634 | 33094 ft | 384 kts | 298° |
| 2026-05-07 14:16 | 40.47793 | -84.35366 | 33441 ft | 383 kts | 298° |
| 2026-05-07 14:16 | 40.49454 | -84.38098 | 33782 ft | 382 kts | 298° |
| 2026-05-07 14:17 | 40.51109 | -84.40820 | 34125 ft | 381 kts | 298° |
| 2026-05-07 14:17 | 40.52760 | -84.43537 | 34390 ft | 380 kts | 298° |
| 2026-05-07 14:17 | 40.54407 | -84.46251 | 34653 ft | 380 kts | 298° |
| 2026-05-07 14:18 | 40.57690 | -84.51665 | 34975 ft | 378 kts | 298° |
| 2026-05-07 14:18 | 40.60961 | -84.57072 | 35056 ft | 376 kts | 298° |
| 2026-05-07 14:19 | 40.64219 | -84.62457 | 35057 ft | 376 kts | 298° |
| 2026-05-07 14:19 | 40.67468 | -84.67846 | 35067 ft | 376 kts | 298° |
| 2026-05-07 14:20 | 40.70721 | -84.73261 | 35058 ft | 377 kts | 298° |
| 2026-05-07 14:20 | 40.73978 | -84.78685 | 35057 ft | 377 kts | 298° |
| 2026-05-07 14:21 | 40.77234 | -84.84110 | 35057 ft | 377 kts | 298° |
| 2026-05-07 14:21 | 40.80481 | -84.89540 | 35097 ft | 377 kts | 298° |
| 2026-05-07 14:22 | 40.83735 | -84.94984 | 35077 ft | 377 kts | 298° |
| 2026-05-07 14:22 | 40.86968 | -85.00395 | 35064 ft | 378 kts | 298° |
| 2026-05-07 14:23 | 40.90222 | -85.05855 | 35068 ft | 378 kts | 299° |
| 2026-05-07 14:23 | 40.93468 | -85.11317 | 35064 ft | 378 kts | 299° |
| 2026-05-07 14:24 | 40.96717 | -85.16766 | 35059 ft | 380 kts | 301° |
| 2026-05-07 14:24 | 40.98649 | -85.19236 | 35056 ft | 393 kts | 311° |
| 2026-05-07 14:24 | 41.00964 | -85.21276 | 34641 ft | 405 kts | 317° |
| 2026-05-07 14:24 | 41.03413 | -85.23243 | 33381 ft | 418 kts | 317° |
| 2026-05-07 14:25 | 41.05922 | -85.25212 | 32445 ft | 419 kts | 318° |
| 2026-05-07 14:25 | 41.08432 | -85.27153 | 31701 ft | 416 kts | 318° |
| 2026-05-07 14:25 | 41.10912 | -85.29064 | 31166 ft | 408 kts | 318° |
| 2026-05-07 14:25 | 41.13348 | -85.30947 | 30626 ft | 402 kts | 317° |
| 2026-05-07 14:26 | 41.15741 | -85.32810 | 30100 ft | 395 kts | 317° |
| 2026-05-07 14:26 | 41.18086 | -85.34652 | 29532 ft | 389 kts | 317° |
| 2026-05-07 14:26 | 41.20389 | -85.36471 | 29027 ft | 381 kts | 317° |
| 2026-05-07 14:26 | 41.22653 | -85.38266 | 28533 ft | 375 kts | 317° |
| 2026-05-07 14:27 | 41.24873 | -85.40031 | 28060 ft | 369 kts | 317° |
| 2026-05-07 14:27 | 41.27057 | -85.41771 | 27605 ft | 364 kts | 317° |
| 2026-05-07 14:27 | 41.29221 | -85.43495 | 27135 ft | 360 kts | 317° |
| 2026-05-07 14:27 | 41.31353 | -85.45193 | 26686 ft | 355 kts | 317° |
| 2026-05-07 14:28 | 41.33454 | -85.46864 | 26256 ft | 350 kts | 317° |
| 2026-05-07 14:28 | 41.35507 | -85.48502 | 25839 ft | 346 kts | 317° |
| 2026-05-07 14:28 | 41.37560 | -85.50139 | 25436 ft | 341 kts | 318° |
| 2026-05-07 14:28 | 41.39590 | -85.51758 | 25033 ft | 337 kts | 318° |
| 2026-05-07 14:29 | 41.41586 | -85.53351 | 24639 ft | 333 kts | 318° |
| 2026-05-07 14:29 | 41.43561 | -85.54930 | 24250 ft | 329 kts | 318° |
| 2026-05-07 14:29 | 41.45514 | -85.56494 | 23835 ft | 328 kts | 319° |
| 2026-05-07 14:29 | 41.47499 | -85.58099 | 23309 ft | 336 kts | 317° |
| 2026-05-07 14:30 | 41.49277 | -85.60033 | 22822 ft | 325 kts | 305° |
| 2026-05-07 14:30 | 41.50592 | -85.62418 | 22385 ft | 316 kts | 292° |
| 2026-05-07 14:30 | 41.51414 | -85.65089 | 21942 ft | 309 kts | 281° |
| 2026-05-07 14:30 | 41.51741 | -85.67903 | 21535 ft | 305 kts | 270° |
| 2026-05-07 14:31 | 41.51796 | -85.70726 | 21126 ft | 305 kts | 270° |
| 2026-05-07 14:31 | 41.51850 | -85.73559 | 20711 ft | 304 kts | 270° |
| 2026-05-07 14:31 | 41.51905 | -85.76380 | 20298 ft | 304 kts | 270° |
| 2026-05-07 14:31 | 41.51962 | -85.79193 | 19884 ft | 303 kts | 270° |
| 2026-05-07 14:32 | 41.52018 | -85.82001 | 19474 ft | 303 kts | 270° |
| 2026-05-07 14:32 | 41.52073 | -85.84815 | 19067 ft | 302 kts | 270° |
| 2026-05-07 14:32 | 41.52127 | -85.87612 | 18660 ft | 302 kts | 270° |
| 2026-05-07 14:32 | 41.52181 | -85.90408 | 18241 ft | 302 kts | 270° |
| 2026-05-07 14:33 | 41.52235 | -85.93207 | 17776 ft | 301 kts | 270° |
| 2026-05-07 14:33 | 41.52292 | -85.95987 | 17323 ft | 300 kts | 270° |
| 2026-05-07 14:33 | 41.52351 | -85.98759 | 16916 ft | 298 kts | 270° |
| 2026-05-07 14:33 | 41.52407 | -86.01519 | 16509 ft | 296 kts | 270° |
| 2026-05-07 14:34 | 41.52457 | -86.04257 | 16110 ft | 295 kts | 270° |
| 2026-05-07 14:34 | 41.52503 | -86.06994 | 15716 ft | 294 kts | 270° |
| 2026-05-07 14:34 | 41.52525 | -86.09709 | 15323 ft | 292 kts | 269° |
| 2026-05-07 14:34 | 41.52514 | -86.12384 | 14937 ft | 291 kts | 269° |
| 2026-05-07 14:35 | 41.52493 | -86.15083 | 14550 ft | 290 kts | 269° |
| 2026-05-07 14:35 | 41.52474 | -86.17768 | 14165 ft | 289 kts | 269° |
| 2026-05-07 14:35 | 41.52453 | -86.20444 | 13770 ft | 287 kts | 269° |
| 2026-05-07 14:35 | 41.52434 | -86.23107 | 13359 ft | 286 kts | 269° |
| 2026-05-07 14:36 | 41.52418 | -86.25748 | 12984 ft | 285 kts | 270° |
| 2026-05-07 14:36 | 41.52405 | -86.28391 | 12600 ft | 283 kts | 270° |
| 2026-05-07 14:36 | 41.52390 | -86.31015 | 12223 ft | 282 kts | 270° |
| 2026-05-07 14:36 | 41.52373 | -86.33628 | 11845 ft | 281 kts | 271° |
| 2026-05-07 14:37 | 41.52356 | -86.36239 | 11474 ft | 280 kts | 271° |
| 2026-05-07 14:37 | 41.52323 | -86.41416 | 10850 ft | 278 kts | 272° |
| 2026-05-07 14:37 | 41.52311 | -86.44004 | 10718 ft | 279 kts | 272° |
| 2026-05-07 14:38 | 41.52296 | -86.46592 | 10563 ft | 279 kts | 272° |
| 2026-05-07 14:38 | 41.52279 | -86.49177 | 10403 ft | 279 kts | 272° |
| 2026-05-07 14:38 | 41.52259 | -86.51751 | 10244 ft | 273 kts | 272° |
| 2026-05-07 14:38 | 41.52234 | -86.54234 | 10095 ft | 262 kts | 272° |
| 2026-05-07 14:39 | 41.52315 | -86.56617 | 9910 ft | 250 kts | 284° |
| 2026-05-07 14:39 | 41.52960 | -86.58744 | 9722 ft | 249 kts | 300° |
| 2026-05-07 14:39 | 41.53822 | -86.60753 | 9554 ft | 249 kts | 300° |
| 2026-05-07 14:39 | 41.54691 | -86.62752 | 9401 ft | 249 kts | 300° |
| 2026-05-07 14:40 | 41.55548 | -86.64727 | 9231 ft | 249 kts | 300° |
| 2026-05-07 14:40 | 41.56131 | -86.66077 | 9125 ft | 248 kts | 300° |
| 2026-05-07 14:40 | 41.56993 | -86.68073 | 8960 ft | 248 kts | 300° |
| 2026-05-07 14:40 | 41.57855 | -86.70071 | 8792 ft | 248 kts | 300° |
| 2026-05-07 14:41 | 41.58712 | -86.72062 | 8633 ft | 247 kts | 300° |
| 2026-05-07 14:41 | 41.59569 | -86.74054 | 8476 ft | 247 kts | 300° |
| 2026-05-07 14:41 | 41.60420 | -86.76038 | 8318 ft | 247 kts | 300° |
| 2026-05-07 14:41 | 41.61275 | -86.78027 | 8159 ft | 246 kts | 300° |
| 2026-05-07 14:42 | 41.62129 | -86.80008 | 8001 ft | 246 kts | 300° |
| 2026-05-07 14:42 | 41.62978 | -86.81983 | 7862 ft | 245 kts | 300° |
| 2026-05-07 14:42 | 41.63829 | -86.83963 | 7706 ft | 245 kts | 300° |
| 2026-05-07 14:42 | 41.64677 | -86.85939 | 7548 ft | 245 kts | 300° |
| 2026-05-07 14:43 | 41.65514 | -86.87889 | 7401 ft | 245 kts | 300° |
| 2026-05-07 14:43 | 41.66362 | -86.89869 | 7247 ft | 244 kts | 300° |
| 2026-05-07 14:43 | 41.67205 | -86.91839 | 7093 ft | 244 kts | 300° |
| 2026-05-07 14:43 | 41.68048 | -86.93808 | 6941 ft | 244 kts | 300° |
| 2026-05-07 14:44 | 41.68889 | -86.95772 | 6783 ft | 244 kts | 300° |
| 2026-05-07 14:44 | 41.69733 | -86.97751 | 6628 ft | 244 kts | 300° |
| 2026-05-07 14:44 | 41.70575 | -86.99726 | 6479 ft | 245 kts | 300° |
| 2026-05-07 14:44 | 41.71420 | -87.01704 | 6320 ft | 245 kts | 300° |
| 2026-05-07 14:45 | 41.72263 | -87.03685 | 6163 ft | 245 kts | 300° |
| 2026-05-07 14:45 | 41.73105 | -87.05659 | 6046 ft | 244 kts | 300° |
| 2026-05-07 14:45 | 41.73951 | -87.07638 | 6024 ft | 244 kts | 299° |
| 2026-05-07 14:45 | 41.74795 | -87.09615 | 6016 ft | 244 kts | 299° |
| 2026-05-07 14:46 | 41.75633 | -87.11585 | 6011 ft | 244 kts | 299° |
| 2026-05-07 14:46 | 41.76473 | -87.13559 | 6012 ft | 244 kts | 299° |
| 2026-05-07 14:46 | 41.77309 | -87.15525 | 6013 ft | 244 kts | 299° |
| 2026-05-07 14:46 | 41.78149 | -87.17511 | 6010 ft | 244 kts | 299° |
| 2026-05-07 14:47 | 41.78983 | -87.19484 | 6006 ft | 244 kts | 299° |
| 2026-05-07 14:47 | 41.79818 | -87.21460 | 6004 ft | 244 kts | 299° |
| 2026-05-07 14:47 | 41.80654 | -87.23434 | 6004 ft | 244 kts | 299° |
| 2026-05-07 14:47 | 41.81481 | -87.25389 | 5984 ft | 244 kts | 299° |
| 2026-05-07 14:48 | 41.82318 | -87.27371 | 5691 ft | 244 kts | 299° |
| 2026-05-07 14:48 | 41.83150 | -87.29346 | 5347 ft | 243 kts | 299° |
| 2026-05-07 14:48 | 41.83981 | -87.31309 | 5000 ft | 242 kts | 300° |
| 2026-05-07 14:48 | 41.84719 | -87.33362 | 4633 ft | 240 kts | 288° |
| 2026-05-07 14:49 | 41.85022 | -87.35536 | 4280 ft | 236 kts | 273° |
| 2026-05-07 14:49 | 41.85019 | -87.37713 | 3941 ft | 231 kts | 271° |
| 2026-05-07 14:49 | 41.85012 | -87.39851 | 3605 ft | 227 kts | 271° |
| 2026-05-07 14:49 | 41.85010 | -87.41928 | 3278 ft | 223 kts | 271° |
| 2026-05-07 14:50 | 41.85011 | -87.43988 | 3029 ft | 216 kts | 271° |
| 2026-05-07 14:50 | 41.85010 | -87.45936 | 3005 ft | 201 kts | 271° |
| 2026-05-07 14:50 | 41.85009 | -87.47794 | 3005 ft | 198 kts | 271° |
| 2026-05-07 14:50 | 41.85007 | -87.49639 | 3006 ft | 197 kts | 270° |
| 2026-05-07 14:51 | 41.85003 | -87.51480 | 3007 ft | 198 kts | 270° |
| 2026-05-07 14:51 | 41.85002 | -87.53328 | 3011 ft | 198 kts | 271° |
| 2026-05-07 14:51 | 41.85002 | -87.55169 | 3010 ft | 197 kts | 270° |
| 2026-05-07 14:51 | 41.84948 | -87.57010 | 3009 ft | 197 kts | 268° |
| 2026-05-07 14:52 | 41.84864 | -87.58845 | 3013 ft | 197 kts | 268° |
| 2026-05-07 14:52 | 41.84775 | -87.60679 | 3013 ft | 196 kts | 267° |
| 2026-05-07 14:52 | 41.84684 | -87.62484 | 2775 ft | 196 kts | 267° |
| 2026-05-07 14:52 | 41.84582 | -87.64297 | 2485 ft | 193 kts | 263° |
| 2026-05-07 14:53 | 41.84163 | -87.65951 | 2251 ft | 180 kts | 248° |
| 2026-05-07 14:53 | 41.83683 | -87.67432 | 1983 ft | 167 kts | 248° |
| 2026-05-07 14:53 | 41.83224 | -87.68768 | 1792 ft | 148 kts | 242° |
| 2026-05-07 14:53 | 41.82658 | -87.69858 | 1563 ft | 137 kts | 232° |
| 2026-05-07 14:54 | 41.82011 | -87.70736 | 1366 ft | 130 kts | 225° |
| 2026-05-07 14:54 | 41.81349 | -87.71577 | 1244 ft | 131 kts | 224° |
| 2026-05-07 14:54 | 41.80909 | -87.72133 | 1126 ft | 129 kts | 227° |
| 2026-05-07 14:54 | 41.80029 | -87.73245 | 897 ft | 130 kts | 225° |
| 2026-05-07 14:55 | 41.79376 | -87.74087 | 700 ft | 130 kts | 225° |
| 2026-05-07 14:55 | 41.78746 | -87.74888 | 626 ft | 107 kts | 220° |
| 2026-05-07 14:55 | 41.78424 | -87.75296 | 626 ft | 26 kts | 222° |
| 2026-05-07 14:55 | 41.78324 | -87.75305 | 623 ft | 16 kts | 134° |
| 2026-05-07 14:56 | 41.78335 | -87.75198 | 622 ft | 13 kts | 48° |
| 2026-05-07 14:56 | 41.78396 | -87.75113 | 622 ft | 12 kts | 44° |
| 2026-05-07 14:56 | 41.78459 | -87.75038 | 624 ft | 13 kts | 40° |
| 2026-05-07 14:56 | 41.78529 | -87.74957 | 615 ft | 13 kts | 43° |
| 2026-05-07 14:57 | 41.78612 | -87.74851 | 624 ft | 19 kts | 46° |
| 2026-05-07 14:57 | 41.78576 | -87.74739 | 616 ft | 14 kts | 134° |
| 2026-05-07 14:57 | 41.78505 | -87.74635 | 628 ft | 15 kts | 123° |
| 2026-05-07 14:57 | 41.78549 | -87.74533 | 622 ft | 11 kts | 45° |
| 2026-05-07 14:58 | 41.78544 | -87.74447 | 626 ft | 6 kts | 137° |
| 2026-05-07 14:58 | 41.78513 | -87.74404 | 626 ft | 0 kts | 131° |
| 2026-05-07 14:58 | 41.78512 | -87.74401 | 626 ft | 0 kts | 131° |
| 2026-05-07 15:01 | 41.78512 | -87.74402 | 617 ft | 0 kts | 132° |